sensor_id;sensor_type;location;lat;lon;timestamp;P1;durP1;ratioP1;P2;durP2;ratioP2
8580;SDS011;4328;48.622;9.230;2022-09-16T00:00:51;6.97;;;2.37;;
8580;SDS011;4328;48.622;9.230;2022-09-16T00:03:18;3.03;;;2.47;;
8580;SDS011;4328;48.622;9.230;2022-09-16T00:05:47;5.00;;;2.57;;
8580;SDS011;4328;48.622;9.230;2022-09-16T00:08:15;4.87;;;2.57;;
8580;SDS011;4328;48.622;9.230;2022-09-16T00:10:42;4.17;;;2.53;;
8580;SDS011;4328;48.622;9.230;2022-09-16T00:13:09;2.40;;;2.20;;
8580;SDS011;4328;48.622;9.230;2022-09-16T00:15:36;3.20;;;2.80;;
8580;SDS011;4328;48.622;9.230;2022-09-16T00:18:03;8.10;;;2.63;;
8580;SDS011;4328;48.622;9.230;2022-09-16T00:20:29;5.03;;;2.60;;
8580;SDS011;4328;48.622;9.230;2022-09-16T00:22:57;2.93;;;2.40;;
8580;SDS011;4328;48.622;9.230;2022-09-16T00:25:24;4.20;;;2.57;;
8580;SDS011;4328;48.622;9.230;2022-09-16T00:27:51;6.30;;;2.60;;
8580;SDS011;4328;48.622;9.230;2022-09-16T00:30:17;3.67;;;2.60;;
8580;SDS011;4328;48.622;9.230;2022-09-16T00:32:45;3.87;;;2.33;;
8580;SDS011;4328;48.622;9.230;2022-09-16T00:35:11;4.93;;;2.50;;
8580;SDS011;4328;48.622;9.230;2022-09-16T00:37:38;4.40;;;2.37;;
8580;SDS011;4328;48.622;9.230;2022-09-16T00:40:06;4.43;;;2.63;;
8580;SDS011;4328;48.622;9.230;2022-09-16T00:42:37;4.73;;;2.80;;
8580;SDS011;4328;48.622;9.230;2022-09-16T00:45:05;2.80;;;2.60;;
8580;SDS011;4328;48.622;9.230;2022-09-16T00:47:39;4.23;;;2.70;;
8580;SDS011;4328;48.622;9.230;2022-09-16T00:50:09;3.53;;;2.50;;
8580;SDS011;4328;48.622;9.230;2022-09-16T00:52:39;5.67;;;2.77;;
8580;SDS011;4328;48.622;9.230;2022-09-16T00:55:09;3.40;;;2.70;;
8580;SDS011;4328;48.622;9.230;2022-09-16T00:57:39;3.53;;;2.43;;
8580;SDS011;4328;48.622;9.230;2022-09-16T01:00:07;6.00;;;2.40;;
8580;SDS011;4328;48.622;9.230;2022-09-16T01:02:36;6.33;;;2.60;;
8580;SDS011;4328;48.622;9.230;2022-09-16T01:05:03;4.07;;;2.50;;
8580;SDS011;4328;48.622;9.230;2022-09-16T01:07:33;3.27;;;2.37;;
8580;SDS011;4328;48.622;9.230;2022-09-16T01:10:04;5.40;;;2.77;;
8580;SDS011;4328;48.622;9.230;2022-09-16T01:12:33;2.97;;;2.70;;
8580;SDS011;4328;48.622;9.230;2022-09-16T01:15:01;3.80;;;2.60;;
8580;SDS011;4328;48.622;9.230;2022-09-16T01:17:34;2.70;;;2.50;;
8580;SDS011;4328;48.622;9.230;2022-09-16T01:20:16;5.33;;;2.50;;
8580;SDS011;4328;48.622;9.230;2022-09-16T01:23:01;3.83;;;2.50;;
8580;SDS011;4328;48.622;9.230;2022-09-16T01:25:54;4.37;;;2.63;;
8580;SDS011;4328;48.622;9.230;2022-09-16T01:28:35;3.47;;;2.80;;
8580;SDS011;4328;48.622;9.230;2022-09-16T01:31:20;2.70;;;2.50;;
8580;SDS011;4328;48.622;9.230;2022-09-16T01:33:55;5.77;;;2.70;;
8580;SDS011;4328;48.622;9.230;2022-09-16T01:36:29;3.97;;;2.40;;
8580;SDS011;4328;48.622;9.230;2022-09-16T01:39:08;6.10;;;3.03;;
8580;SDS011;4328;48.622;9.230;2022-09-16T01:41:47;4.50;;;2.50;;
8580;SDS011;4328;48.622;9.230;2022-09-16T01:44:28;5.13;;;2.90;;
8580;SDS011;4328;48.622;9.230;2022-09-16T01:47:06;7.90;;;2.73;;
8580;SDS011;4328;48.622;9.230;2022-09-16T01:49:43;3.70;;;2.70;;
8580;SDS011;4328;48.622;9.230;2022-09-16T01:52:19;3.87;;;2.60;;
8580;SDS011;4328;48.622;9.230;2022-09-16T01:54:51;3.93;;;2.30;;
8580;SDS011;4328;48.622;9.230;2022-09-16T01:57:22;2.63;;;2.40;;
8580;SDS011;4328;48.622;9.230;2022-09-16T01:59:57;2.93;;;2.70;;
8580;SDS011;4328;48.622;9.230;2022-09-16T02:02:30;3.47;;;2.83;;
8580;SDS011;4328;48.622;9.230;2022-09-16T02:05:02;3.83;;;3.20;;
8580;SDS011;4328;48.622;9.230;2022-09-16T02:07:34;2.97;;;2.70;;
8580;SDS011;4328;48.622;9.230;2022-09-16T02:10:06;6.57;;;3.10;;
8580;SDS011;4328;48.622;9.230;2022-09-16T02:12:39;3.57;;;2.70;;
8580;SDS011;4328;48.622;9.230;2022-09-16T02:15:09;4.10;;;2.40;;
8580;SDS011;4328;48.622;9.230;2022-09-16T02:17:46;3.40;;;3.10;;
8580;SDS011;4328;48.622;9.230;2022-09-16T02:20:18;4.60;;;2.67;;
8580;SDS011;4328;48.622;9.230;2022-09-16T02:22:50;5.00;;;2.83;;
8580;SDS011;4328;48.622;9.230;2022-09-16T02:25:23;3.17;;;2.77;;
8580;SDS011;4328;48.622;9.230;2022-09-16T02:27:51;2.87;;;2.67;;
8580;SDS011;4328;48.622;9.230;2022-09-16T02:30:19;4.70;;;2.47;;
8580;SDS011;4328;48.622;9.230;2022-09-16T02:32:49;7.77;;;2.90;;
8580;SDS011;4328;48.622;9.230;2022-09-16T02:35:20;3.70;;;2.80;;
8580;SDS011;4328;48.622;9.230;2022-09-16T02:37:48;5.60;;;2.50;;
8580;SDS011;4328;48.622;9.230;2022-09-16T02:40:19;2.97;;;2.50;;
8580;SDS011;4328;48.622;9.230;2022-09-16T02:42:49;2.73;;;2.53;;
8580;SDS011;4328;48.622;9.230;2022-09-16T02:45:17;4.13;;;2.53;;
8580;SDS011;4328;48.622;9.230;2022-09-16T02:47:46;3.40;;;2.70;;
8580;SDS011;4328;48.622;9.230;2022-09-16T02:50:24;6.03;;;2.93;;
8580;SDS011;4328;48.622;9.230;2022-09-16T02:52:56;4.90;;;2.90;;
8580;SDS011;4328;48.622;9.230;2022-09-16T02:55:29;3.40;;;2.60;;
8580;SDS011;4328;48.622;9.230;2022-09-16T02:58:03;3.23;;;2.43;;
8580;SDS011;4328;48.622;9.230;2022-09-16T03:00:31;7.10;;;2.80;;
8580;SDS011;4328;48.622;9.230;2022-09-16T03:03:02;8.27;;;3.10;;
8580;SDS011;4328;48.622;9.230;2022-09-16T03:05:29;2.80;;;2.60;;
8580;SDS011;4328;48.622;9.230;2022-09-16T03:07:56;4.90;;;3.00;;
8580;SDS011;4328;48.622;9.230;2022-09-16T03:10:26;5.03;;;2.80;;
8580;SDS011;4328;48.622;9.230;2022-09-16T03:13:00;4.83;;;2.63;;
8580;SDS011;4328;48.622;9.230;2022-09-16T03:15:46;6.53;;;2.70;;
8580;SDS011;4328;48.622;9.230;2022-09-16T03:18:44;4.30;;;2.63;;
8580;SDS011;4328;48.622;9.230;2022-09-16T03:21:20;4.60;;;3.03;;
8580;SDS011;4328;48.622;9.230;2022-09-16T03:23:55;2.97;;;2.73;;
8580;SDS011;4328;48.622;9.230;2022-09-16T03:26:32;3.27;;;2.67;;
8580;SDS011;4328;48.622;9.230;2022-09-16T03:29:06;5.47;;;2.73;;
8580;SDS011;4328;48.622;9.230;2022-09-16T03:31:43;3.00;;;2.80;;
8580;SDS011;4328;48.622;9.230;2022-09-16T03:34:16;2.60;;;2.40;;
8580;SDS011;4328;48.622;9.230;2022-09-16T03:36:46;3.20;;;2.63;;
8580;SDS011;4328;48.622;9.230;2022-09-16T03:39:18;4.23;;;2.77;;
8580;SDS011;4328;48.622;9.230;2022-09-16T03:41:46;3.17;;;2.83;;
8580;SDS011;4328;48.622;9.230;2022-09-16T03:44:13;3.97;;;3.07;;
8580;SDS011;4328;48.622;9.230;2022-09-16T03:46:40;3.67;;;2.80;;
8580;SDS011;4328;48.622;9.230;2022-09-16T03:49:06;5.27;;;2.87;;
8580;SDS011;4328;48.622;9.230;2022-09-16T03:51:34;4.70;;;3.00;;
8580;SDS011;4328;48.622;9.230;2022-09-16T03:54:01;4.40;;;3.00;;
8580;SDS011;4328;48.622;9.230;2022-09-16T03:56:28;3.50;;;3.07;;
8580;SDS011;4328;48.622;9.230;2022-09-16T03:58:55;3.43;;;2.60;;
8580;SDS011;4328;48.622;9.230;2022-09-16T04:01:21;5.37;;;3.10;;
8580;SDS011;4328;48.622;9.230;2022-09-16T04:03:48;3.17;;;2.80;;
8580;SDS011;4328;48.622;9.230;2022-09-16T04:06:16;3.70;;;2.97;;
8580;SDS011;4328;48.622;9.230;2022-09-16T04:08:44;3.80;;;2.77;;
8580;SDS011;4328;48.622;9.230;2022-09-16T04:11:11;5.40;;;2.67;;
8580;SDS011;4328;48.622;9.230;2022-09-16T04:13:37;3.03;;;2.83;;
8580;SDS011;4328;48.622;9.230;2022-09-16T04:16:04;6.80;;;3.03;;
8580;SDS011;4328;48.622;9.230;2022-09-16T04:18:31;5.57;;;3.33;;
8580;SDS011;4328;48.622;9.230;2022-09-16T04:20:59;4.40;;;2.90;;
8580;SDS011;4328;48.622;9.230;2022-09-16T04:23:28;4.40;;;2.83;;
8580;SDS011;4328;48.622;9.230;2022-09-16T04:25:57;3.33;;;2.73;;
8580;SDS011;4328;48.622;9.230;2022-09-16T04:28:25;6.40;;;3.40;;
8580;SDS011;4328;48.622;9.230;2022-09-16T04:30:57;3.83;;;3.40;;
8580;SDS011;4328;48.622;9.230;2022-09-16T04:33:26;3.07;;;2.87;;
8580;SDS011;4328;48.622;9.230;2022-09-16T04:35:53;4.37;;;3.27;;
8580;SDS011;4328;48.622;9.230;2022-09-16T04:38:20;3.20;;;2.93;;
8580;SDS011;4328;48.622;9.230;2022-09-16T04:40:46;6.53;;;3.13;;
8580;SDS011;4328;48.622;9.230;2022-09-16T04:43:14;3.53;;;3.23;;
8580;SDS011;4328;48.622;9.230;2022-09-16T04:45:41;5.57;;;3.53;;
8580;SDS011;4328;48.622;9.230;2022-09-16T04:48:07;5.43;;;3.23;;
8580;SDS011;4328;48.622;9.230;2022-09-16T04:50:34;5.00;;;3.37;;
8580;SDS011;4328;48.622;9.230;2022-09-16T04:53:00;3.70;;;3.20;;
8580;SDS011;4328;48.622;9.230;2022-09-16T04:55:27;6.07;;;3.50;;
8580;SDS011;4328;48.622;9.230;2022-09-16T04:57:57;3.37;;;3.10;;
8580;SDS011;4328;48.622;9.230;2022-09-16T05:00:26;7.53;;;3.23;;
8580;SDS011;4328;48.622;9.230;2022-09-16T05:02:52;5.87;;;3.30;;
8580;SDS011;4328;48.622;9.230;2022-09-16T05:05:19;4.27;;;3.30;;
8580;SDS011;4328;48.622;9.230;2022-09-16T05:07:46;5.90;;;3.33;;
8580;SDS011;4328;48.622;9.230;2022-09-16T05:10:13;3.37;;;3.10;;
8580;SDS011;4328;48.622;9.230;2022-09-16T05:12:39;7.07;;;3.43;;
8580;SDS011;4328;48.622;9.230;2022-09-16T05:15:06;5.13;;;3.30;;
8580;SDS011;4328;48.622;9.230;2022-09-16T05:17:35;4.77;;;3.20;;
8580;SDS011;4328;48.622;9.230;2022-09-16T05:20:02;6.47;;;3.53;;
8580;SDS011;4328;48.622;9.230;2022-09-16T05:22:28;3.53;;;3.23;;
8580;SDS011;4328;48.622;9.230;2022-09-16T05:24:55;5.87;;;3.43;;
8580;SDS011;4328;48.622;9.230;2022-09-16T05:27:22;3.70;;;3.30;;
8580;SDS011;4328;48.622;9.230;2022-09-16T05:29:52;5.00;;;3.73;;
8580;SDS011;4328;48.622;9.230;2022-09-16T05:32:18;3.77;;;3.17;;
8580;SDS011;4328;48.622;9.230;2022-09-16T05:34:46;4.20;;;3.80;;
8580;SDS011;4328;48.622;9.230;2022-09-16T05:37:13;3.70;;;3.40;;
8580;SDS011;4328;48.622;9.230;2022-09-16T05:39:40;6.07;;;3.53;;
8580;SDS011;4328;48.622;9.230;2022-09-16T05:42:07;5.13;;;3.67;;
8580;SDS011;4328;48.622;9.230;2022-09-16T05:44:34;6.50;;;3.43;;
8580;SDS011;4328;48.622;9.230;2022-09-16T05:47:01;3.83;;;3.40;;
8580;SDS011;4328;48.622;9.230;2022-09-16T05:49:28;5.40;;;3.70;;
8580;SDS011;4328;48.622;9.230;2022-09-16T05:51:56;4.03;;;3.63;;
8580;SDS011;4328;48.622;9.230;2022-09-16T05:54:22;4.03;;;3.63;;
8580;SDS011;4328;48.622;9.230;2022-09-16T05:56:49;4.03;;;3.43;;
8580;SDS011;4328;48.622;9.230;2022-09-16T05:59:16;4.40;;;3.53;;
8580;SDS011;4328;48.622;9.230;2022-09-16T06:01:43;3.50;;;3.20;;
8580;SDS011;4328;48.622;9.230;2022-09-16T06:04:10;3.83;;;3.43;;
8580;SDS011;4328;48.622;9.230;2022-09-16T06:06:39;3.83;;;3.50;;
8580;SDS011;4328;48.622;9.230;2022-09-16T06:09:10;6.63;;;3.83;;
8580;SDS011;4328;48.622;9.230;2022-09-16T06:11:38;6.20;;;3.30;;
8580;SDS011;4328;48.622;9.230;2022-09-16T06:14:06;4.03;;;3.37;;
8580;SDS011;4328;48.622;9.230;2022-09-16T06:16:33;6.10;;;3.53;;
8580;SDS011;4328;48.622;9.230;2022-09-16T06:19:00;6.37;;;3.70;;
8580;SDS011;4328;48.622;9.230;2022-09-16T06:21:28;3.50;;;3.20;;
8580;SDS011;4328;48.622;9.230;2022-09-16T06:23:56;6.33;;;3.27;;
8580;SDS011;4328;48.622;9.230;2022-09-16T06:26:24;4.40;;;3.27;;
8580;SDS011;4328;48.622;9.230;2022-09-16T06:28:52;5.83;;;3.90;;
8580;SDS011;4328;48.622;9.230;2022-09-16T06:31:20;4.13;;;3.80;;
8580;SDS011;4328;48.622;9.230;2022-09-16T06:33:48;5.90;;;3.80;;
8580;SDS011;4328;48.622;9.230;2022-09-16T06:36:16;3.77;;;3.47;;
8580;SDS011;4328;48.622;9.230;2022-09-16T06:38:44;3.90;;;3.47;;
8580;SDS011;4328;48.622;9.230;2022-09-16T06:41:12;7.43;;;3.60;;
8580;SDS011;4328;48.622;9.230;2022-09-16T06:43:41;4.20;;;3.43;;
8580;SDS011;4328;48.622;9.230;2022-09-16T06:46:08;4.30;;;3.50;;
8580;SDS011;4328;48.622;9.230;2022-09-16T06:48:39;4.20;;;3.60;;
8580;SDS011;4328;48.622;9.230;2022-09-16T06:51:06;3.93;;;3.40;;
8580;SDS011;4328;48.622;9.230;2022-09-16T06:53:35;4.00;;;3.60;;
8580;SDS011;4328;48.622;9.230;2022-09-16T06:56:02;4.17;;;2.93;;
8580;SDS011;4328;48.622;9.230;2022-09-16T06:58:30;4.87;;;2.80;;
8580;SDS011;4328;48.622;9.230;2022-09-16T07:01:00;3.70;;;2.80;;
8580;SDS011;4328;48.622;9.230;2022-09-16T07:03:30;4.80;;;3.30;;
8580;SDS011;4328;48.622;9.230;2022-09-16T07:05:56;3.40;;;3.10;;
8580;SDS011;4328;48.622;9.230;2022-09-16T07:08:26;7.87;;;3.70;;
8580;SDS011;4328;48.622;9.230;2022-09-16T07:10:54;4.03;;;3.60;;
8580;SDS011;4328;48.622;9.230;2022-09-16T07:13:22;4.90;;;3.20;;
8580;SDS011;4328;48.622;9.230;2022-09-16T07:15:48;4.77;;;3.17;;
8580;SDS011;4328;48.622;9.230;2022-09-16T07:18:16;4.40;;;3.20;;
8580;SDS011;4328;48.622;9.230;2022-09-16T07:20:43;5.20;;;3.10;;
8580;SDS011;4328;48.622;9.230;2022-09-16T07:23:09;3.77;;;2.90;;
8580;SDS011;4328;48.622;9.230;2022-09-16T07:25:36;3.57;;;3.27;;
8580;SDS011;4328;48.622;9.230;2022-09-16T07:28:02;4.77;;;3.37;;
8580;SDS011;4328;48.622;9.230;2022-09-16T07:30:29;4.13;;;3.20;;
8580;SDS011;4328;48.622;9.230;2022-09-16T07:32:58;3.73;;;3.40;;
8580;SDS011;4328;48.622;9.230;2022-09-16T07:35:26;7.53;;;3.70;;
8580;SDS011;4328;48.622;9.230;2022-09-16T07:37:52;4.33;;;2.80;;
8580;SDS011;4328;48.622;9.230;2022-09-16T07:40:19;3.77;;;3.43;;
8580;SDS011;4328;48.622;9.230;2022-09-16T07:42:46;4.20;;;3.70;;
8580;SDS011;4328;48.622;9.230;2022-09-16T07:45:12;5.07;;;4.10;;
8580;SDS011;4328;48.622;9.230;2022-09-16T07:47:39;4.90;;;4.50;;
8580;SDS011;4328;48.622;9.230;2022-09-16T07:50:06;6.40;;;3.97;;
8580;SDS011;4328;48.622;9.230;2022-09-16T07:52:35;4.77;;;4.20;;
8580;SDS011;4328;48.622;9.230;2022-09-16T07:55:01;6.50;;;5.57;;
8580;SDS011;4328;48.622;9.230;2022-09-16T07:57:28;7.80;;;4.00;;
8580;SDS011;4328;48.622;9.230;2022-09-16T07:59:55;6.17;;;4.60;;
8580;SDS011;4328;48.622;9.230;2022-09-16T08:02:22;6.17;;;4.83;;
8580;SDS011;4328;48.622;9.230;2022-09-16T08:04:48;6.37;;;4.47;;
8580;SDS011;4328;48.622;9.230;2022-09-16T08:07:15;4.73;;;3.90;;
8580;SDS011;4328;48.622;9.230;2022-09-16T08:09:43;6.10;;;3.00;;
8580;SDS011;4328;48.622;9.230;2022-09-16T08:12:10;3.13;;;2.83;;
8580;SDS011;4328;48.622;9.230;2022-09-16T08:14:38;2.60;;;2.27;;
8580;SDS011;4328;48.622;9.230;2022-09-16T08:17:05;3.57;;;2.57;;
8580;SDS011;4328;48.622;9.230;2022-09-16T08:19:32;4.00;;;2.70;;
8580;SDS011;4328;48.622;9.230;2022-09-16T08:21:58;3.83;;;2.33;;
8580;SDS011;4328;48.622;9.230;2022-09-16T08:24:25;4.07;;;2.70;;
8580;SDS011;4328;48.622;9.230;2022-09-16T08:26:53;3.83;;;2.70;;
8580;SDS011;4328;48.622;9.230;2022-09-16T08:29:19;5.80;;;2.90;;
8580;SDS011;4328;48.622;9.230;2022-09-16T08:31:49;4.10;;;2.70;;
8580;SDS011;4328;48.622;9.230;2022-09-16T08:34:16;3.00;;;2.50;;
8580;SDS011;4328;48.622;9.230;2022-09-16T08:36:42;5.00;;;3.40;;
8580;SDS011;4328;48.622;9.230;2022-09-16T08:39:09;4.50;;;3.60;;
8580;SDS011;4328;48.622;9.230;2022-09-16T08:44:47;9.00;;;3.33;;
8580;SDS011;4328;48.622;9.230;2022-09-16T08:47:23;4.63;;;3.20;;
8580;SDS011;4328;48.622;9.230;2022-09-16T08:49:58;5.87;;;2.83;;
8580;SDS011;4328;48.622;9.230;2022-09-16T08:52:29;3.53;;;2.83;;
8580;SDS011;4328;48.622;9.230;2022-09-16T08:54:58;3.10;;;2.70;;
8580;SDS011;4328;48.622;9.230;2022-09-16T08:57:28;3.13;;;2.80;;
8580;SDS011;4328;48.622;9.230;2022-09-16T09:00:00;4.07;;;3.00;;
8580;SDS011;4328;48.622;9.230;2022-09-16T09:02:36;2.80;;;2.60;;
8580;SDS011;4328;48.622;9.230;2022-09-16T09:05:12;8.93;;;8.07;;
8580;SDS011;4328;48.622;9.230;2022-09-16T09:07:46;3.60;;;3.03;;
8580;SDS011;4328;48.622;9.230;2022-09-16T09:10:21;3.60;;;2.90;;
8580;SDS011;4328;48.622;9.230;2022-09-16T09:12:55;3.17;;;2.50;;
8580;SDS011;4328;48.622;9.230;2022-09-16T09:15:35;3.13;;;2.63;;
8580;SDS011;4328;48.622;9.230;2022-09-16T09:18:13;3.63;;;3.37;;
8580;SDS011;4328;48.622;9.230;2022-09-16T09:20:56;3.20;;;2.60;;
8580;SDS011;4328;48.622;9.230;2022-09-16T09:23:36;3.07;;;2.87;;
8580;SDS011;4328;48.622;9.230;2022-09-16T09:26:14;3.93;;;2.80;;
8580;SDS011;4328;48.622;9.230;2022-09-16T09:29:03;3.27;;;2.83;;
8580;SDS011;4328;48.622;9.230;2022-09-16T09:31:52;4.23;;;3.10;;
8580;SDS011;4328;48.622;9.230;2022-09-16T09:34:29;4.07;;;2.90;;
8580;SDS011;4328;48.622;9.230;2022-09-16T09:40:07;3.03;;;2.80;;
8580;SDS011;4328;48.622;9.230;2022-09-16T09:42:39;5.87;;;4.70;;
8580;SDS011;4328;48.622;9.230;2022-09-16T09:45:15;4.10;;;3.57;;
8580;SDS011;4328;48.622;9.230;2022-09-16T09:47:47;3.97;;;3.30;;
8580;SDS011;4328;48.622;9.230;2022-09-16T09:50:17;4.00;;;3.57;;
8580;SDS011;4328;48.622;9.230;2022-09-16T09:52:50;3.60;;;3.03;;
8580;SDS011;4328;48.622;9.230;2022-09-16T09:55:22;3.43;;;3.13;;
8580;SDS011;4328;48.622;9.230;2022-09-16T09:58:00;4.87;;;3.07;;
8580;SDS011;4328;48.622;9.230;2022-09-16T10:00:35;3.27;;;2.80;;
8580;SDS011;4328;48.622;9.230;2022-09-16T10:03:05;4.80;;;3.43;;
8580;SDS011;4328;48.622;9.230;2022-09-16T10:05:35;4.53;;;2.77;;
8580;SDS011;4328;48.622;9.230;2022-09-16T10:08:03;3.73;;;3.20;;
8580;SDS011;4328;48.622;9.230;2022-09-16T10:10:32;3.63;;;3.33;;
8580;SDS011;4328;48.622;9.230;2022-09-16T10:13:06;4.87;;;3.50;;
8580;SDS011;4328;48.622;9.230;2022-09-16T10:15:34;5.30;;;3.73;;
8580;SDS011;4328;48.622;9.230;2022-09-16T10:18:01;4.30;;;3.90;;
8580;SDS011;4328;48.622;9.230;2022-09-16T10:20:37;3.70;;;3.40;;
8580;SDS011;4328;48.622;9.230;2022-09-16T10:23:08;4.20;;;3.23;;
8580;SDS011;4328;48.622;9.230;2022-09-16T10:25:36;4.57;;;3.37;;
8580;SDS011;4328;48.622;9.230;2022-09-16T10:28:04;3.93;;;2.97;;
8580;SDS011;4328;48.622;9.230;2022-09-16T10:30:44;2.90;;;2.70;;
8580;SDS011;4328;48.622;9.230;2022-09-16T10:33:16;3.27;;;2.63;;
8580;SDS011;4328;48.622;9.230;2022-09-16T10:35:51;3.00;;;2.70;;
8580;SDS011;4328;48.622;9.230;2022-09-16T10:38:22;2.77;;;2.33;;
8580;SDS011;4328;48.622;9.230;2022-09-16T10:40:52;2.63;;;2.40;;
8580;SDS011;4328;48.622;9.230;2022-09-16T10:43:22;3.20;;;2.57;;
8580;SDS011;4328;48.622;9.230;2022-09-16T10:45:51;3.03;;;2.30;;
8580;SDS011;4328;48.622;9.230;2022-09-16T10:48:20;3.10;;;2.80;;
8580;SDS011;4328;48.622;9.230;2022-09-16T10:50:53;2.90;;;2.43;;
8580;SDS011;4328;48.622;9.230;2022-09-16T10:55:55;3.10;;;2.50;;
8580;SDS011;4328;48.622;9.230;2022-09-16T10:58:23;3.37;;;2.50;;
8580;SDS011;4328;48.622;9.230;2022-09-16T11:00:50;2.47;;;2.37;;
8580;SDS011;4328;48.622;9.230;2022-09-16T11:03:31;3.03;;;2.50;;
8580;SDS011;4328;48.622;9.230;2022-09-16T11:06:23;2.80;;;2.40;;
8580;SDS011;4328;48.622;9.230;2022-09-16T11:09:04;2.47;;;2.27;;
8580;SDS011;4328;48.622;9.230;2022-09-16T11:11:45;2.57;;;2.37;;
8580;SDS011;4328;48.622;9.230;2022-09-16T11:14:23;2.50;;;2.30;;
8580;SDS011;4328;48.622;9.230;2022-09-16T11:17:02;2.67;;;2.40;;
8580;SDS011;4328;48.622;9.230;2022-09-16T11:19:45;2.67;;;2.43;;
8580;SDS011;4328;48.622;9.230;2022-09-16T11:22:23;3.97;;;2.40;;
8580;SDS011;4328;48.622;9.230;2022-09-16T11:25:07;2.57;;;2.40;;
8580;SDS011;4328;48.622;9.230;2022-09-16T11:27:49;3.00;;;2.73;;
8580;SDS011;4328;48.622;9.230;2022-09-16T11:30:24;3.83;;;2.50;;
8580;SDS011;4328;48.622;9.230;2022-09-16T11:33:03;2.50;;;2.23;;
8580;SDS011;4328;48.622;9.230;2022-09-16T11:35:57;4.77;;;2.50;;
8580;SDS011;4328;48.622;9.230;2022-09-16T11:38:52;3.40;;;2.53;;
8580;SDS011;4328;48.622;9.230;2022-09-16T11:41:34;4.13;;;2.30;;
8580;SDS011;4328;48.622;9.230;2022-09-16T11:44:13;2.83;;;2.63;;
8580;SDS011;4328;48.622;9.230;2022-09-16T11:46:54;4.67;;;2.70;;
8580;SDS011;4328;48.622;9.230;2022-09-16T11:49:32;3.27;;;2.50;;
8580;SDS011;4328;48.622;9.230;2022-09-16T11:52:16;2.73;;;2.23;;
8580;SDS011;4328;48.622;9.230;2022-09-16T11:55:01;2.57;;;2.00;;
8580;SDS011;4328;48.622;9.230;2022-09-16T11:57:41;5.40;;;2.17;;
8580;SDS011;4328;48.622;9.230;2022-09-16T12:00:12;2.40;;;2.20;;
8580;SDS011;4328;48.622;9.230;2022-09-16T12:02:43;2.40;;;2.20;;
8580;SDS011;4328;48.622;9.230;2022-09-16T12:05:16;2.47;;;2.23;;
8580;SDS011;4328;48.622;9.230;2022-09-16T12:07:49;2.20;;;2.00;;
8580;SDS011;4328;48.622;9.230;2022-09-16T12:10:20;2.50;;;2.03;;
8580;SDS011;4328;48.622;9.230;2022-09-16T12:12:51;2.67;;;2.40;;
8580;SDS011;4328;48.622;9.230;2022-09-16T12:15:22;2.53;;;2.03;;
8580;SDS011;4328;48.622;9.230;2022-09-16T12:17:52;2.20;;;1.77;;
8580;SDS011;4328;48.622;9.230;2022-09-16T12:20:22;4.00;;;1.87;;
8580;SDS011;4328;48.622;9.230;2022-09-16T12:22:56;2.00;;;1.67;;
8580;SDS011;4328;48.622;9.230;2022-09-16T12:25:31;3.70;;;1.70;;
8580;SDS011;4328;48.622;9.230;2022-09-16T12:28:04;1.70;;;1.60;;
8580;SDS011;4328;48.622;9.230;2022-09-16T12:30:39;2.07;;;1.47;;
8580;SDS011;4328;48.622;9.230;2022-09-16T12:33:09;3.07;;;1.60;;
8580;SDS011;4328;48.622;9.230;2022-09-16T12:35:43;2.73;;;1.60;;
8580;SDS011;4328;48.622;9.230;2022-09-16T12:38:16;2.47;;;1.40;;
8580;SDS011;4328;48.622;9.230;2022-09-16T12:40:49;1.97;;;1.50;;
8580;SDS011;4328;48.622;9.230;2022-09-16T12:43:39;2.93;;;1.43;;
8580;SDS011;4328;48.622;9.230;2022-09-16T12:49:26;1.80;;;1.40;;
8580;SDS011;4328;48.622;9.230;2022-09-16T12:52:20;4.93;;;1.63;;
8580;SDS011;4328;48.622;9.230;2022-09-16T12:55:02;3.23;;;1.70;;
8580;SDS011;4328;48.622;9.230;2022-09-16T12:57:55;3.07;;;1.63;;
8580;SDS011;4328;48.622;9.230;2022-09-16T13:00:35;1.40;;;1.30;;
8580;SDS011;4328;48.622;9.230;2022-09-16T13:03:09;2.07;;;1.30;;
8580;SDS011;4328;48.622;9.230;2022-09-16T13:05:44;5.07;;;1.57;;
8580;SDS011;4328;48.622;9.230;2022-09-16T13:08:17;1.53;;;1.37;;
8580;SDS011;4328;48.622;9.230;2022-09-16T13:10:54;3.23;;;1.40;;
8580;SDS011;4328;48.622;9.230;2022-09-16T13:13:28;1.60;;;1.50;;
8580;SDS011;4328;48.622;9.230;2022-09-16T13:15:59;2.40;;;1.50;;
8580;SDS011;4328;48.622;9.230;2022-09-16T13:18:38;3.77;;;1.53;;
8580;SDS011;4328;48.622;9.230;2022-09-16T13:21:11;1.50;;;1.40;;
8580;SDS011;4328;48.622;9.230;2022-09-16T13:23:49;2.23;;;1.60;;
8580;SDS011;4328;48.622;9.230;2022-09-16T13:26:24;1.90;;;1.50;;
8580;SDS011;4328;48.622;9.230;2022-09-16T13:29:02;3.47;;;1.87;;
8580;SDS011;4328;48.622;9.230;2022-09-16T13:31:48;2.67;;;1.50;;
8580;SDS011;4328;48.622;9.230;2022-09-16T13:34:16;2.43;;;1.40;;
8580;SDS011;4328;48.622;9.230;2022-09-16T13:36:43;6.10;;;1.67;;
8580;SDS011;4328;48.622;9.230;2022-09-16T13:39:11;3.33;;;1.70;;
8580;SDS011;4328;48.622;9.230;2022-09-16T13:41:41;1.57;;;1.40;;
8580;SDS011;4328;48.622;9.230;2022-09-16T13:44:26;1.67;;;1.57;;
8580;SDS011;4328;48.622;9.230;2022-09-16T13:47:05;3.97;;;1.40;;
8580;SDS011;4328;48.622;9.230;2022-09-16T13:49:45;1.93;;;1.57;;
8580;SDS011;4328;48.622;9.230;2022-09-16T13:52:16;3.03;;;1.67;;
8580;SDS011;4328;48.622;9.230;2022-09-16T13:54:46;2.57;;;1.50;;
8580;SDS011;4328;48.622;9.230;2022-09-16T13:57:22;2.07;;;1.40;;
8580;SDS011;4328;48.622;9.230;2022-09-16T14:00:00;1.60;;;1.40;;
8580;SDS011;4328;48.622;9.230;2022-09-16T14:02:36;3.10;;;1.40;;
8580;SDS011;4328;48.622;9.230;2022-09-16T14:05:17;3.10;;;1.60;;
8580;SDS011;4328;48.622;9.230;2022-09-16T14:07:55;1.90;;;1.30;;
8580;SDS011;4328;48.622;9.230;2022-09-16T14:10:29;1.37;;;1.27;;
8580;SDS011;4328;48.622;9.230;2022-09-16T14:13:08;1.77;;;1.40;;
8580;SDS011;4328;48.622;9.230;2022-09-16T14:15:39;2.10;;;1.17;;
8580;SDS011;4328;48.622;9.230;2022-09-16T14:18:09;2.63;;;1.53;;
8580;SDS011;4328;48.622;9.230;2022-09-16T14:20:38;3.90;;;2.87;;
8580;SDS011;4328;48.622;9.230;2022-09-16T14:23:16;1.97;;;1.40;;
8580;SDS011;4328;48.622;9.230;2022-09-16T14:25:44;2.50;;;1.47;;
8580;SDS011;4328;48.622;9.230;2022-09-16T14:28:19;2.03;;;1.40;;
8580;SDS011;4328;48.622;9.230;2022-09-16T14:30:47;2.27;;;1.37;;
8580;SDS011;4328;48.622;9.230;2022-09-16T14:33:16;2.20;;;1.40;;
8580;SDS011;4328;48.622;9.230;2022-09-16T14:35:47;1.73;;;1.40;;
8580;SDS011;4328;48.622;9.230;2022-09-16T14:38:17;3.07;;;1.50;;
8580;SDS011;4328;48.622;9.230;2022-09-16T14:40:46;1.93;;;1.30;;
8580;SDS011;4328;48.622;9.230;2022-09-16T14:43:14;1.40;;;1.30;;
8580;SDS011;4328;48.622;9.230;2022-09-16T14:45:46;1.23;;;1.13;;
8580;SDS011;4328;48.622;9.230;2022-09-16T14:48:15;1.50;;;1.30;;
8580;SDS011;4328;48.622;9.230;2022-09-16T14:50:44;2.07;;;1.30;;
8580;SDS011;4328;48.622;9.230;2022-09-16T14:53:21;2.77;;;2.20;;
8580;SDS011;4328;48.622;9.230;2022-09-16T14:55:51;2.47;;;1.50;;
8580;SDS011;4328;48.622;9.230;2022-09-16T14:58:17;1.87;;;1.37;;
8580;SDS011;4328;48.622;9.230;2022-09-16T15:00:49;1.63;;;1.50;;
8580;SDS011;4328;48.622;9.230;2022-09-16T15:03:21;1.60;;;1.50;;
8580;SDS011;4328;48.622;9.230;2022-09-16T15:05:51;2.53;;;1.40;;
8580;SDS011;4328;48.622;9.230;2022-09-16T15:08:21;3.33;;;1.40;;
8580;SDS011;4328;48.622;9.230;2022-09-16T15:10:52;2.33;;;1.23;;
8580;SDS011;4328;48.622;9.230;2022-09-16T15:13:23;2.53;;;1.50;;
8580;SDS011;4328;48.622;9.230;2022-09-16T15:15:54;1.50;;;1.40;;
8580;SDS011;4328;48.622;9.230;2022-09-16T15:18:25;2.13;;;1.40;;
8580;SDS011;4328;48.622;9.230;2022-09-16T15:20:56;2.40;;;1.30;;
8580;SDS011;4328;48.622;9.230;2022-09-16T15:23:30;3.40;;;1.80;;
8580;SDS011;4328;48.622;9.230;2022-09-16T15:25:58;2.20;;;1.33;;
8580;SDS011;4328;48.622;9.230;2022-09-16T15:28:34;3.50;;;1.50;;
8580;SDS011;4328;48.622;9.230;2022-09-16T15:31:02;3.67;;;1.40;;
8580;SDS011;4328;48.622;9.230;2022-09-16T15:33:32;1.30;;;1.20;;
8580;SDS011;4328;48.622;9.230;2022-09-16T15:36:01;2.30;;;1.30;;
8580;SDS011;4328;48.622;9.230;2022-09-16T15:38:29;1.97;;;1.37;;
8580;SDS011;4328;48.622;9.230;2022-09-16T15:40:59;2.47;;;1.50;;
8580;SDS011;4328;48.622;9.230;2022-09-16T15:43:28;2.10;;;1.10;;
8580;SDS011;4328;48.622;9.230;2022-09-16T15:45:59;2.93;;;1.20;;
8580;SDS011;4328;48.622;9.230;2022-09-16T15:48:31;3.40;;;1.40;;
8580;SDS011;4328;48.622;9.230;2022-09-16T15:51:01;2.53;;;1.10;;
8580;SDS011;4328;48.622;9.230;2022-09-16T15:53:39;1.50;;;1.20;;